Time;durP1;ratioP1;P1;durP2;ratioP2;P2;SDS_P1;SDS_P2;PMS_P1;PMS_P2;Temp;Humidity;BMP_temperature;BMP_pressure;BME280_temperature;BME280_humidity;BME280_pressure;Samples;Min_cycle;Max_cycle;Signal;HPM_P1;HPM_P2
2022/05/25 00:01:00;;;;;;;4.57;2.70;;;;;;;14.83;54.16;101159.34;4903174;28;123927;-77
2022/05/25 00:03:29;;;;;;;3.67;2.75;;;;;;;14.83;54.28;101159.34;4905658;28;118235;-78
2022/05/25 00:05:58;;;;;;;3.83;3.00;;;;;;;14.83;54.24;101163.84;4904701;28;119147;-78
2022/05/25 00:08:25;;;;;;;4.03;2.75;;;;;;;14.82;54.23;101168.28;4904773;28;123791;-78
2022/05/25 00:10:53;;;;;;;3.50;2.80;;;;;;;14.83;54.39;101161.16;4905981;28;122947;-77
2022/05/25 00:13:20;;;;;;;4.22;2.85;;;;;;;14.82;54.44;101168.28;4909339;28;119194;-77
2022/05/25 00:15:47;;;;;;;3.72;3.05;;;;;;;14.81;54.30;101171.91;4896180;28;118743;-77
2022/05/25 00:18:14;;;;;;;5.70;3.10;;;;;;;14.81;54.49;101166.59;4919936;28;122987;-76
2022/05/25 00:20:41;;;;;;;4.63;3.13;;;;;;;14.81;54.40;101171.91;4895989;28;123160;-77
2022/05/25 00:23:09;;;;;;;6.75;3.35;;;;;;;14.78;54.50;101172.09;4909440;28;119043;-77
2022/05/25 00:25:38;;;;;;;4.43;3.10;;;;;;;14.78;54.35;101174.75;4921452;28;118265;-77
2022/05/25 00:28:08;;;;;;;4.50;3.05;;;;;;;14.77;54.61;101170.38;4903821;28;123542;-77
2022/05/25 00:30:35;;;;;;;4.47;3.20;;;;;;;14.77;54.62;101175.72;4905938;28;123228;-77
2022/05/25 00:33:04;;;;;;;3.83;2.92;;;;;;;14.75;54.64;101182.94;4907069;28;119177;-77
2022/05/25 00:35:32;;;;;;;4.47;3.10;;;;;;;14.74;54.78;101181.22;4907084;28;118296;-77
2022/05/25 00:37:59;;;;;;;5.30;3.30;;;;;;;14.73;54.75;101179.47;4908902;28;123590;-77
2022/05/25 00:40:47;;;;;;;6.05;3.70;;;;;;;14.70;54.69;101187.66;4904383;28;122286;-76
2022/05/25 00:43:14;;;;;;;6.22;3.47;;;;;;;14.69;54.75;101188.59;4891958;28;119587;-77
2022/05/25 00:45:46;;;;;;;5.22;3.40;;;;;;;14.69;54.75;101188.59;4904206;28;118333;-77
2022/05/25 00:48:22;;;;;;;7.35;3.45;;;;;;;14.67;54.93;101185.16;4919090;28;126145;-77
2022/05/25 00:53:35;;;;;;;5.88;3.58;;;;;;;14.65;54.72;101187.91;4897458;28;119301;-77
2022/05/25 00:56:06;;;;;;;6.63;3.63;;;;;;;14.64;55.01;101186.22;4907511;28;118585;-77
2022/05/25 00:58:36;;;;;;;5.57;3.47;;;;;;;14.65;54.87;101187.06;4909795;28;123781;-77
2022/05/25 01:01:04;;;;;;;4.53;3.65;;;;;;;14.63;54.75;101186.28;4897074;28;124625;-77
2022/05/25 01:03:32;;;;;;;4.80;3.85;;;;;;;14.62;54.82;101188.09;4898201;28;120136;-77
2022/05/25 01:06:10;;;;;;;5.55;3.88;;;;;;;14.61;55.03;101181.03;4892936;28;118674;-77
2022/05/25 01:08:48;;;;;;;5.35;3.70;;;;;;;14.59;54.95;101193.59;4911520;28;123616;-77
2022/05/25 01:11:40;;;;;;;5.38;3.50;;;;;;;14.58;54.95;101192.75;4891715;28;123899;-77
2022/05/25 01:14:23;;;;;;;7.05;3.78;;;;;;;14.55;55.24;101189.38;4910621;28;120292;-77
2022/05/25 01:17:03;;;;;;;6.60;4.00;;;;;;;14.54;55.12;101184.97;4893691;28;119994;-77
2022/05/25 01:19:54;;;;;;;6.55;3.80;;;;;;;14.52;55.11;101182.41;4891143;28;124617;-77
2022/05/25 01:22:56;;;;;;;6.53;4.05;;;;;;;14.50;55.31;101188.75;4911527;28;123070;-77
2022/05/25 01:26:06;;;;;;;7.25;4.20;;;;;;;14.48;55.05;101196.81;4907511;28;117358;-77
2022/05/25 01:28:49;;;;;;;6.57;3.92;;;;;;;14.45;54.98;101199.69;4892548;28;119070;-77
2022/05/25 01:31:30;;;;;;;6.45;4.38;;;;;;;14.45;55.15;101202.34;4914316;28;124761;-77
2022/05/25 01:34:29;;;;;;;8.15;4.55;;;;;;;14.43;55.24;101201.56;4907696;28;123056;-77
2022/05/25 01:37:15;;;;;;;6.50;4.05;;;;;;;14.41;55.37;101200.81;4892453;28;119365;-77
2022/05/25 01:39:55;;;;;;;6.93;4.18;;;;;;;14.39;55.61;101202.66;4906545;28;117782;-77
2022/05/25 01:42:40;;;;;;;9.10;4.47;;;;;;;14.37;55.30;101204.56;4888834;28;123584;-77
2022/05/25 01:45:09;;;;;;;6.03;3.80;;;;;;;14.38;55.41;101211.63;4894373;28;123945;-77
2022/05/25 01:47:41;;;;;;;6.63;4.40;;;;;;;14.38;55.44;101206.28;4899316;28;119239;-77
2022/05/25 01:50:33;;;;;;;7.13;4.90;;;;;;;14.36;55.67;101208.19;4896710;28;119317;-77
2022/05/25 01:53:02;;;;;;;8.55;4.78;;;;;;;14.33;55.68;101208.34;4894125;28;124032;-77
2022/05/25 01:55:38;;;;;;;6.55;4.70;;;;;;;14.31;55.74;101205.75;4895506;28;123637;-78
2022/05/25 01:58:16;;;;;;;7.57;4.47;;;;;;;14.31;55.85;101215.56;4890861;28;118753;-78
2022/05/25 02:00:48;;;;;;;7.53;5.00;;;;;;;14.31;55.77;101215.56;4911129;28;118581;-78
2022/05/25 02:06:20;;;;;;;7.72;4.82;;;;;;;14.29;55.72;101212.13;4900566;28;124062;-77
2022/05/25 02:08:50;;;;;;;;;;;;;;;14.26;55.22;101212.28;4890986;28;120253;-77
2022/05/25 02:11:33;;;;;;;6.88;4.75;;;;;;;14.24;55.39;101224.81;4907873;28;118780;-77
2022/05/25 02:14:31;;;;;;;9.88;5.50;;;;;;;14.21;55.82;101217.88;4894033;28;123518;-77
2022/05/25 02:17:26;;;;;;;9.07;5.18;;;;;;;14.17;55.86;101225.16;4893435;28;123498;-77
2022/05/25 02:20:14;;;;;;;8.05;5.68;;;;;;;14.16;56.03;101222.56;4910582;28;118530;-77
2022/05/25 02:22:55;;;;;;;9.50;5.68;;;;;;;14.14;56.04;101225.31;4891966;28;118589;-77
2022/05/25 02:25:36;;;;;;;9.82;5.50;;;;;;;14.13;56.17;101228.94;4907294;28;124827;-78
2022/05/25 02:28:09;;;;;;;8.57;5.40;;;;;;;14.13;56.40;101228.94;4893364;28;123823;-77
2022/05/25 02:30:42;;;;;;;7.95;5.35;;;;;;;14.13;56.19;101228.94;4921009;28;118608;-78
2022/05/25 02:33:13;;;;;;;7.72;5.25;;;;;;;14.14;56.29;101230.66;4894042;28;118850;-77
2022/05/25 02:35:42;;;;;;;8.55;5.28;;;;;;;14.13;56.27;101234.28;4892909;28;124916;-77
2022/05/25 02:38:11;;;;;;;9.45;5.53;;;;;;;14.12;56.31;101227.22;4912256;28;122771;-77
2022/05/25 02:40:40;;;;;;;8.82;5.32;;;;;;;14.11;56.39;101225.50;4887333;28;118734;-77
2022/05/25 02:43:08;;;;;;;10.00;5.55;;;;;;;14.10;56.49;101229.09;4908431;28;118689;-77
2022/05/25 02:45:37;;;;;;;9.95;5.72;;;;;;;14.10;56.62;101234.44;4901907;28;123999;-76
2022/05/25 02:48:05;;;;;;;7.82;5.50;;;;;;;14.09;56.29;101238.06;4908594;28;123900;-77
2022/05/25 02:50:32;;;;;;;6.95;5.40;;;;;;;14.09;56.51;101242.50;4899255;28;118901;-77
2022/05/25 02:53:00;;;;;;;8.98;5.50;;;;;;;14.07;56.71;101234.59;4911737;28;119160;-78
2022/05/25 02:55:27;;;;;;;10.23;5.97;;;;;;;14.05;56.62;101241.78;4906333;28;123516;-78
2022/05/25 02:57:58;;;;;;;8.15;5.45;;;;;;;14.05;56.75;101241.78;4908108;28;124018;-78
2022/05/25 03:00:26;;;;;;;7.75;5.60;;;;;;;14.04;56.61;101242.75;4906766;28;120032;-78
2022/05/25 03:02:56;;;;;;;7.78;5.60;;;;;;;14.03;56.78;101249.00;4907473;28;120657;-77
2022/05/25 03:05:24;;;;;;;9.90;5.53;;;;;;;14.02;56.71;101244.63;4923223;28;124352;-78
2022/05/25 03:07:51;;;;;;;7.60;5.65;;;;;;;14.01;56.82;101245.56;4905137;28;123523;-77
2022/05/25 03:10:19;;;;;;;9.13;5.65;;;;;;;13.98;56.78;101256.41;4925156;28;118245;-77
2022/05/25 03:12:47;;;;;;;8.55;5.38;;;;;;;13.97;56.79;101255.50;4908422;28;118731;-78
2022/05/25 03:15:14;;;;;;;9.65;5.45;;;;;;;13.97;56.71;101265.31;4907707;28;123944;-79
2022/05/25 03:17:41;;;;;;;8.70;5.30;;;;;;;13.96;56.95;101268.94;4910821;28;123608;-78
2022/05/25 03:20:09;;;;;;;8.68;5.38;;;;;;;13.95;56.76;101264.53;4921736;28;118408;-78
2022/05/25 03:22:37;;;;;;;7.15;4.90;;;;;;;13.95;56.80;101261.88;4904067;28;118884;-79
2022/05/25 03:25:05;;;;;;;8.30;5.40;;;;;;;13.93;56.77;101263.75;4907548;28;123769;-78
2022/05/25 03:27:32;;;;;;;7.40;5.32;;;;;;;13.91;56.81;101265.66;4909260;28;123899;-78
2022/05/25 03:29:59;;;;;;;10.13;5.40;;;;;;;13.91;56.95;101273.63;4899616;28;118526;-78
2022/05/25 03:32:27;;;;;;;9.32;5.65;;;;;;;13.89;56.88;101267.53;4922120;28;118114;-78
2022/05/25 03:34:54;;;;;;;8.45;5.35;;;;;;;13.89;57.16;101272.84;4941956;28;122988;-77
2022/05/25 03:37:21;;;;;;;8.70;5.43;;;;;;;13.89;57.15;101283.50;4925902;28;127227;-77
2022/05/25 03:39:48;;;;;;;8.60;5.65;;;;;;;13.89;57.17;101278.19;4919793;28;118953;-77
2022/05/25 03:42:18;;;;;;;6.82;5.55;;;;;;;13.90;57.15;101279.88;4919270;28;119568;-76
2022/05/25 03:44:46;;;;;;;8.50;5.55;;;;;;;13.89;57.25;101283.50;4900838;28;124103;-77
2022/05/25 03:47:13;;;;;;;7.85;5.55;;;;;;;13.90;56.97;101290.53;4908564;28;122919;-77
2022/05/25 03:49:40;;;;;;;8.65;5.35;;;;;;;13.89;57.09;101288.84;4904113;28;121208;-77
2022/05/25 03:52:07;;;;;;;8.02;5.30;;;;;;;13.89;57.16;101284.34;4889472;28;121214;-78
2022/05/25 03:54:37;;;;;;;8.80;5.10;;;;;;;13.89;57.18;101291.50;4904038;28;123363;-77
2022/05/25 03:57:04;;;;;;;8.05;5.05;;;;;;;13.88;57.44;101287.97;4907807;28;124078;-77
2022/05/25 03:59:31;;;;;;;7.60;5.13;;;;;;;13.88;57.26;101287.09;4904700;28;119510;-78
2022/05/25 04:01:59;;;;;;;7.78;4.85;;;;;;;13.87;57.25;101290.72;4902645;28;118912;-78
2022/05/25 04:04:26;;;;;;;7.60;5.40;;;;;;;13.89;57.19;101296.81;4907118;28;123766;-77
2022/05/25 04:06:53;;;;;;;8.60;5.25;;;;;;;13.89;57.36;101294.16;4892705;28;122960;-77
2022/05/25 04:09:20;;;;;;;7.95;5.40;;;;;;;13.90;57.46;101293.19;4903767;28;118700;-78
2022/05/25 04:11:48;;;;;;;7.07;4.85;;;;;;;13.90;57.52;101298.53;4888952;28;118637;-77
2022/05/25 04:14:15;;;;;;;7.90;5.43;;;;;;;13.90;57.42;101301.19;4903667;28;124241;-78
2022/05/25 04:16:44;;;;;;;10.00;5.00;;;;;;;13.91;57.48;101297.59;4901181;28;123679;-78
2022/05/25 04:19:12;;;;;;;7.40;4.93;;;;;;;13.90;57.32;101306.50;4887291;28;118833;-78
2022/05/25 04:21:39;;;;;;;9.43;5.28;;;;;;;13.89;57.43;101310.13;4893844;28;118838;-77
2022/05/25 04:24:06;;;;;;;9.07;5.25;;;;;;;13.88;57.43;101303.06;4903461;28;124318;-77
2022/05/25 04:26:34;;;;;;;7.80;5.15;;;;;;;13.90;57.75;101301.19;4889579;28;123030;-77
2022/05/25 04:29:01;;;;;;;9.40;5.00;;;;;;;13.90;57.60;101306.50;4889472;28;119171;-77
2022/05/25 04:31:28;;;;;;;7.43;5.03;;;;;;;13.90;57.61;101298.53;4905788;28;118950;-78
2022/05/25 04:33:56;;;;;;;8.05;4.80;;;;;;;13.92;57.59;101301.97;4893393;28;123763;-77
2022/05/25 04:36:23;;;;;;;7.68;4.97;;;;;;;13.93;57.68;101301.03;4893547;28;124744;-77
2022/05/25 04:38:50;;;;;;;6.05;4.53;;;;;;;13.93;57.80;101303.69;4891593;28;120718;-77
2022/05/25 04:41:17;;;;;;;7.97;4.65;;;;;;;13.94;57.77;101308.09;4905449;28;119534;-77
2022/05/25 04:43:44;;;;;;;7.18;5.28;;;;;;;13.98;58.11;101307.00;4892683;28;124191;-77
2022/05/25 04:46:12;;;;;;;7.13;4.85;;;;;;;14.09;58.62;101312.63;4905821;28;122704;-79
2022/05/25 04:48:40;;;;;;;8.15;4.53;;;;;;;14.20;58.91;101315.59;4900380;28;119206;-78
2022/05/25 04:51:07;;;;;;;6.65;4.25;;;;;;;14.32;58.91;101313.22;4918142;28;119071;-78
2022/05/25 04:53:34;;;;;;;6.60;4.28;;;;;;;14.44;58.66;101312.53;4889922;28;124011;-81
2022/05/25 04:58:47;;;;;;;;;;;;;;;14.59;57.85;101327.75;4905618;28;119296;-78
2022/05/25 05:01:19;;;;;;;7.53;3.88;;;;;;;14.63;57.79;101322.25;4904448;28;118822;-80
2022/05/25 05:03:47;;;;;;;6.45;3.85;;;;;;;14.64;57.56;101318.66;4901549;28;124004;-77
2022/05/25 05:06:15;;;;;;;5.30;3.75;;;;;;;14.66;57.62;101333.63;4903137;28;123784;-77
2022/05/25 05:08:43;;;;;;;7.13;3.50;;;;;;;14.66;57.71;101327.44;4903577;28;118479;-78
2022/05/25 05:11:13;;;;;;;6.30;3.92;;;;;;;14.66;57.62;101338.09;4897418;28;119141;-77
2022/05/25 05:13:40;;;;;;;6.72;3.90;;;;;;;14.66;57.63;101327.44;4899031;28;123656;-77
2022/05/25 05:16:11;;;;;;;7.15;3.63;;;;;;;14.67;57.33;101323.81;4903940;28;123413;-77
2022/05/25 05:18:38;;;;;;;9.18;3.92;;;;;;;14.67;57.68;101321.13;4905242;28;117257;-77
2022/05/25 05:21:23;;;;;;;7.55;3.83;;;;;;;14.66;57.57;101333.63;4895825;28;119831;-76
2022/05/25 05:23:50;;;;;;;7.60;4.00;;;;;;;14.68;57.61;101330.88;4889985;28;123964;-77
2022/05/25 05:26:18;;;;;;;6.85;4.00;;;;;;;14.70;57.68;101328.97;4907298;28;123929;-77
2022/05/25 05:28:45;;;;;;;4.15;3.45;;;;;;;14.72;57.76;101332.41;4889681;28;120014;-77
2022/05/25 05:31:14;;;;;;;9.32;4.07;;;;;;;14.75;57.67;101321.59;4892126;28;120003;-77
2022/05/25 05:33:41;;;;;;;6.40;4.07;;;;;;;14.78;57.79;101329.41;4907754;28;123519;-78
2022/05/25 05:36:22;;;;;;;7.65;4.25;;;;;;;14.81;57.86;101321.25;4914163;28;124451;-78
2022/05/25 05:39:02;;;;;;;6.60;3.97;;;;;;;14.84;57.85;101326.41;4906652;28;118484;-76
2022/05/25 05:41:42;;;;;;;7.43;3.78;;;;;;;14.87;57.83;101326.25;4906565;28;121889;-77
2022/05/25 05:44:13;;;;;;;9.07;4.35;;;;;;;14.90;57.94;101320.75;4899427;28;123204;-76
2022/05/25 05:46:42;;;;;;;6.18;3.72;;;;;;;14.95;57.92;101321.31;4901618;28;123588;-76
2022/05/25 05:49:10;;;;;;;9.23;3.67;;;;;;;14.99;57.88;101325.56;4905854;28;118159;-75
2022/05/25 05:51:37;;;;;;;7.50;3.90;;;;;;;15.05;57.81;101324.38;4899597;28;118166;-76
2022/05/25 05:54:05;;;;;;;6.95;4.03;;;;;;;15.11;57.97;101312.50;4920981;28;124238;-75
2022/05/25 05:56:33;;;;;;;9.15;4.10;;;;;;;15.15;57.93;101314.03;4900341;28;123437;-76
2022/05/25 05:59:01;;;;;;;6.47;3.78;;;;;;;15.21;57.82;101313.66;4894290;28;119630;-76
2022/05/25 06:01:28;;;;;;;6.63;3.78;;;;;;;15.28;57.89;101314.19;4905600;28;117979;-77
2022/05/25 06:03:55;;;;;;;6.90;4.07;;;;;;;15.33;57.81;101323.66;4910302;28;124737;-76
2022/05/25 06:06:25;;;;;;;7.97;3.95;;;;;;;15.37;57.68;101319.84;4896673;28;123819;-76
2022/05/25 06:08:53;;;;;;;7.53;3.92;;;;;;;15.44;57.85;101324.84;4899140;28;119883;-76
2022/05/25 06:11:20;;;;;;;5.65;3.90;;;;;;;15.50;57.58;101324.47;4906366;28;118387;-77
2022/05/25 06:13:48;;;;;;;8.48;3.90;;;;;;;15.58;57.78;101328.44;4907078;28;124179;-76
2022/05/25 06:21:48;;;;;;;10.63;4.03;;;;;;;15.89;57.69;101325.78;4895818;28;121771;-76
2022/05/25 06:24:15;;;;;;;8.98;4.32;;;;;;;16.02;57.63;101325.91;4907628;28;123815;-76
2022/05/25 06:26:43;;;;;;;8.48;3.88;;;;;;;16.13;57.67;101326.97;4889080;28;123220;-76
2022/05/25 06:29:11;;;;;;;9.15;3.78;;;;;;;16.28;57.55;101337.69;4891668;28;119543;-75
2022/05/25 06:31:38;;;;;;;6.55;3.80;;;;;;;16.41;57.43;101338.66;4906517;28;118351;-76
2022/05/25 06:34:05;;;;;;;8.00;3.97;;;;;;;16.52;57.21;101341.53;4892668;28;124623;-75
2022/05/25 06:36:33;;;;;;;7.22;3.90;;;;;;;16.65;57.36;101340.75;4892288;28;124653;-76
2022/05/25 06:39:00;;;;;;;8.63;4.55;;;;;;;16.78;57.01;101349.72;4890916;28;119208;-76
2022/05/25 06:41:28;;;;;;;7.20;3.97;;;;;;;16.91;57.04;101357.88;4906721;28;119030;-76
2022/05/25 06:43:56;;;;;;;7.40;3.97;;;;;;;17.06;57.19;101350.69;4906778;28;125242;-78
2022/05/25 06:46:23;;;;;;;7.65;4.43;;;;;;;17.23;56.99;101353.13;4905586;28;122751;-76
2022/05/25 06:48:57;;;;;;;6.78;4.30;;;;;;;17.40;56.57;101348.50;4906933;28;118304;-76
2022/05/25 06:51:28;;;;;;;9.40;4.30;;;;;;;17.53;56.44;101349.41;4890970;28;118614;-76
2022/05/25 06:53:56;;;;;;;7.60;3.97;;;;;;;17.66;56.16;101350.28;4891096;28;124148;-76
2022/05/25 06:56:24;;;;;;;8.40;4.18;;;;;;;17.77;55.93;101356.78;4892769;28;124193;-77
2022/05/25 06:58:53;;;;;;;9.00;4.07;;;;;;;17.89;55.91;101355.97;4906471;28;118534;-76
2022/05/25 07:01:21;;;;;;;5.70;3.75;;;;;;;18.01;55.98;101355.13;4888657;28;118003;-76
2022/05/25 07:03:49;;;;;;;6.47;3.75;;;;;;;18.18;55.77;101366.53;4889684;28;123363;-76
2022/05/25 07:06:18;;;;;;;8.20;4.18;;;;;;;18.33;55.78;101369.94;4890895;28;123694;-76
2022/05/25 07:08:45;;;;;;;9.02;4.30;;;;;;;18.46;55.35;101370.84;4890906;28;120886;-76
2022/05/25 07:11:13;;;;;;;7.80;4.05;;;;;;;18.57;55.42;101367.38;4890269;28;119647;-76
2022/05/25 07:13:40;;;;;;;6.85;3.90;;;;;;;18.70;55.23;101362.88;4891213;28;123822;-76
2022/05/25 07:16:11;;;;;;;5.25;3.58;;;;;;;18.84;54.83;101373.53;4905858;28;122822;-76
2022/05/25 07:18:39;;;;;;;8.80;3.88;;;;;;;18.95;54.50;101372.75;4891027;28;119596;-77
2022/05/25 07:21:09;;;;;;;10.00;3.58;;;;;;;19.06;54.48;101374.66;4890428;28;119009;-76
2022/05/25 07:23:38;;;;;;;6.93;3.33;;;;;;;19.18;54.47;101379.13;4891318;28;123568;-76
2022/05/25 07:26:07;;;;;;;5.75;3.40;;;;;;;19.33;54.31;101381.69;4905749;28;122900;-76
2022/05/25 07:28:35;;;;;;;5.13;3.53;;;;;;;19.42;53.75;101381.84;4889816;28;119013;-77
2022/05/25 07:31:14;;;;;;;6.53;3.40;;;;;;;19.48;53.33;101379.66;4904915;28;118121;-76
2022/05/25 07:33:44;;;;;;;5.25;2.72;;;;;;;19.55;53.34;101381.81;4902841;28;124645;-76
2022/05/25 07:36:11;;;;;;;6.18;3.20;;;;;;;19.68;53.41;101380.88;4906718;28;123207;-76
2022/05/25 07:38:44;;;;;;;6.00;3.00;;;;;;;19.82;53.66;101380.75;4916920;28;118507;-76
2022/05/25 07:41:12;;;;;;;6.35;3.20;;;;;;;20.01;53.34;101381.03;4907597;28;120990;-76
2022/05/25 07:43:41;;;;;;;5.72;3.15;;;;;;;20.18;53.08;101385.13;4908202;28;123777;-75
2022/05/25 07:46:08;;;;;;;5.38;3.10;;;;;;;20.31;52.89;101390.41;4909566;28;123117;-76
2022/05/25 07:48:36;;;;;;;5.45;2.80;;;;;;;20.43;52.50;101394.84;4895644;28;118894;-76
2022/05/25 07:51:05;;;;;;;4.68;2.55;;;;;;;20.53;52.40;101399.50;4891996;28;118812;-76
2022/05/25 07:56:30;;;;;;;5.50;2.78;;;;;;;20.52;51.58;101392.41;4873526;28;123779;-77
2022/05/25 07:58:59;;;;;;;5.65;2.50;;;;;;;20.41;50.98;101399.47;4892278;28;119927;-77
2022/05/25 08:07:07;;;;;;;5.00;2.58;;;;;;;20.52;51.63;101392.41;4888603;28;122911;-75
2022/05/25 08:09:35;;;;;;;3.88;2.33;;;;;;;20.65;51.39;101398.59;4890056;28;119230;-75
2022/05/25 08:12:08;;;;;;;5.82;2.80;;;;;;;20.72;51.18;101405.19;4889852;28;118797;-76
2022/05/25 08:14:35;;;;;;;5.45;2.70;;;;;;;20.77;51.03;101402.97;4889389;28;123993;-76
2022/05/25 08:17:04;;;;;;;3.63;2.70;;;;;;;20.76;50.38;101401.28;4889738;28;123793;-76
2022/05/25 08:19:31;;;;;;;4.82;2.95;;;;;;;20.70;50.60;101399.09;4904486;28;118408;-76
2022/05/25 08:21:58;;;;;;;5.70;3.00;;;;;;;20.74;50.88;101399.69;4905182;28;118253;-76
2022/05/25 08:24:25;;;;;;;5.65;2.65;;;;;;;20.84;51.11;101407.91;4890998;28;123340;-76
2022/05/25 08:26:52;;;;;;;5.05;2.50;;;;;;;20.93;51.01;101399.09;4923475;28;123422;-76
2022/05/25 08:29:20;;;;;;;3.78;2.72;;;;;;;21.06;50.90;101396.25;4909473;28;119133;-76
2022/05/25 08:31:47;;;;;;;4.85;3.13;;;;;;;21.14;50.44;101402.72;4909719;28;119851;-77
2022/05/25 08:34:14;;;;;;;5.43;2.83;;;;;;;21.16;50.19;101397.22;4924804;28;122958;-76
2022/05/25 08:36:41;;;;;;;4.95;2.40;;;;;;;21.19;50.33;101392.44;4908575;28;123488;-76
2022/05/25 08:39:09;;;;;;;5.20;2.33;;;;;;;21.26;49.99;101390.09;4893191;28;118808;-76
2022/05/25 08:41:37;;;;;;;4.95;2.28;;;;;;;21.35;50.08;101391.19;4909063;28;118978;-76
2022/05/25 08:44:07;;;;;;;3.55;2.05;;;;;;;21.45;50.15;101392.16;4909279;28;124456;-75
2022/05/25 08:46:34;;;;;;;5.68;2.15;;;;;;;21.55;49.80;101387.75;4907952;28;123556;-76
2022/05/25 08:49:06;;;;;;;3.90;1.90;;;;;;;21.63;49.53;101389.78;4906737;28;121163;-76
2022/05/25 08:51:44;;;;;;;4.80;2.13;;;;;;;21.70;49.35;101387.44;4907678;28;119554;-78
2022/05/25 08:54:12;;;;;;;3.83;2.05;;;;;;;21.77;49.38;101386.81;4908661;28;123364;-76
2022/05/25 08:56:49;;;;;;;5.70;2.17;;;;;;;21.84;49.21;101387.13;4923198;28;123886;-76
2022/05/25 08:59:30;;;;;;;5.47;2.10;;;;;;;21.91;49.23;101388.34;4893339;28;118386;-75
2022/05/25 09:02:20;;;;;;;3.78;2.15;;;;;;;21.96;48.66;101387.94;4907079;28;119593;-76
2022/05/25 09:05:11;;;;;;;4.00;2.20;;;;;;;22.00;48.54;101385.84;4908564;28;123997;-77
2022/05/25 09:08:10;;;;;;;3.45;1.92;;;;;;;22.08;48.64;101383.38;4891919;28;123371;-76
2022/05/25 09:10:43;;;;;;;3.55;1.95;;;;;;;22.13;48.25;101391.91;4924922;28;119321;-76
2022/05/25 09:13:20;;;;;;;5.35;2.15;;;;;;;22.17;48.37;101385.28;4911340;28;117329;-76
2022/05/25 09:18:43;;;;;;;4.10;2.05;;;;;;;22.32;47.86;101389.38;4910381;28;124022;-76
2022/05/25 09:21:13;;;;;;;3.55;1.90;;;;;;;22.38;47.75;101395.22;4926039;28;119015;-76
2022/05/25 09:23:40;;;;;;;3.30;2.10;;;;;;;22.41;47.63;101397.66;4894716;28;118033;-77
2022/05/25 09:26:08;;;;;;;4.80;2.20;;;;;;;22.41;47.19;101394.97;4912769;28;124431;-77
2022/05/25 09:28:40;;;;;;;4.22;2.05;;;;;;;22.38;47.07;101400.63;4895872;28;124686;-76
2022/05/25 09:31:11;;;;;;;3.67;1.60;;;;;;;22.39;47.29;101395.09;4925852;28;119252;-77
2022/05/25 09:33:51;;;;;;;4.40;1.83;;;;;;;22.48;47.00;101401.53;4910764;28;118765;-76
2022/05/25 09:36:22;;;;;;;2.60;1.60;;;;;;;22.56;46.73;101393.63;4911984;28;124257;-76
2022/05/25 09:39:20;;;;;;;4.90;1.45;;;;;;;22.54;46.31;101409.09;4895567;28;123885;-76
2022/05/25 09:41:52;;;;;;;3.15;1.42;;;;;;;22.48;46.23;101391.59;4910157;28;120411;-77
2022/05/25 09:44:20;;;;;;;3.33;1.88;;;;;;;22.45;46.15;101399.09;4911151;28;119850;-77
2022/05/25 09:46:59;;;;;;;3.70;1.92;;;;;;;22.45;46.28;101402.69;4910402;28;124248;-77
2022/05/25 09:49:40;;;;;;;4.15;1.60;;;;;;;22.51;46.09;101409.38;4893958;28;123163;-77
2022/05/25 09:52:14;;;;;;;3.40;1.45;;;;;;;22.56;45.77;101415.22;4911114;28;119459;-77
2022/05/25 09:55:03;;;;;;;2.80;1.20;;;;;;;22.60;45.85;101403.16;4926781;28;118843;-77
2022/05/25 09:57:45;;;;;;;2.67;1.30;;;;;;;22.57;45.38;101406.16;4910756;28;123459;-77
2022/05/25 10:00:35;;;;;;;2.85;1.33;;;;;;;22.51;45.18;101417.50;4895284;28;123634;-77
2022/05/25 10:03:07;;;;;;;4.82;1.90;;;;;;;22.42;44.79;101415.56;4911102;28;118373;-77
2022/05/25 10:05:51;;;;;;;2.00;1.20;;;;;;;22.35;45.00;101421.47;4896151;28;117594;-77
2022/05/25 10:08:40;;;;;;;3.00;1.40;;;;;;;22.33;44.80;101420.75;4911508;28;123685;-77
2022/05/25 10:11:31;;;;;;;3.05;1.38;;;;;;;22.38;44.78;101416.81;4899135;28;122930;-76
2022/05/25 10:14:37;;;;;;;3.08;1.30;;;;;;;22.40;45.00;101428.34;4943296;28;119353;-77
2022/05/25 10:17:08;;;;;;;2.40;1.10;;;;;;;22.33;44.23;101420.75;4920488;28;117238;-76
2022/05/25 10:19:57;;;;;;;3.80;1.00;;;;;;;22.22;44.16;101418.09;4953268;28;123641;-77
2022/05/25 10:22:31;;;;;;;3.17;1.38;;;;;;;22.17;44.52;101418.50;4921543;28;124085;-76
2022/05/25 10:25:12;;;;;;;2.08;1.33;;;;;;;22.18;44.71;101411.25;4898022;28;118771;-77
2022/05/25 10:27:44;;;;;;;2.60;1.58;;;;;;;22.17;44.22;101412.25;4910128;28;119044;-77
2022/05/25 10:39:27;;;;;;;2.85;1.27;;;;;;;21.85;44.23;101423.94;4910460;28;120272;-77
2022/05/25 10:42:10;;;;;;;2.22;1.10;;;;;;;21.93;44.32;101424.13;4892667;28;123653;-77
2022/05/25 10:44:59;;;;;;;1.33;0.88;;;;;;;22.01;44.10;101420.78;4909844;28;124440;-77
2022/05/25 10:47:35;;;;;;;3.28;1.10;;;;;;;21.99;43.69;101411.97;4891157;28;119698;-75
2022/05/25 10:50:11;;;;;;;4.00;1.13;;;;;;;21.94;43.39;101420.47;4921267;28;118156;-78
2022/05/25 10:52:45;;;;;;;1.90;0.80;;;;;;;21.91;43.14;101415.31;4909339;28;123868;-78
2022/05/25 10:55:13;;;;;;;3.70;0.93;;;;;;;21.92;43.69;101422.41;4909730;28;123446;-77
2022/05/25 10:58:06;;;;;;;3.03;0.80;;;;;;;22.03;43.58;101401.78;4892652;28;119597;-76
2022/05/25 11:00:56;;;;;;;0.95;0.75;;;;;;;22.08;43.27;101394.16;4908961;28;118687;-75
2022/05/25 11:04:02;;;;;;;2.13;0.90;;;;;;;22.03;42.82;101401.78;4893842;28;123838;-77
2022/05/25 11:07:08;;;;;;;2.27;0.80;;;;;;;22.01;43.20;101392.97;4885394;28;123583;-78
2022/05/25 11:09:58;;;;;;;2.45;0.80;;;;;;;22.06;43.01;101402.38;4910696;28;120270;-78
2022/05/25 11:12:40;;;;;;;1.52;0.90;;;;;;;22.10;42.68;101402.97;4895890;28;117579;-77
2022/05/25 11:15:19;;;;;;;1.35;0.70;;;;;;;22.15;42.85;101403.41;4896231;28;123497;-78
2022/05/25 11:18:09;;;;;;;2.15;0.80;;;;;;;22.26;43.05;101403.38;4898270;28;122773;-77
2022/05/25 11:20:49;;;;;;;1.30;0.73;;;;;;;22.38;42.77;101395.22;4898542;28;118799;-77
2022/05/25 11:23:37;;;;;;;1.92;0.60;;;;;;;22.50;42.11;101388.75;4911398;28;118940;-76
2022/05/25 11:26:41;;;;;;;1.92;0.70;;;;;;;22.57;41.91;101395.34;4906750;28;123717;-76
2022/05/25 11:29:21;;;;;;;4.47;0.82;;;;;;;22.67;42.03;101390.00;4892793;28;124833;-76
2022/05/25 11:32:00;;;;;;;1.35;0.60;;;;;;;22.81;41.98;101386.06;4888090;28;120837;-77
2022/05/25 11:34:41;;;;;;;2.15;0.60;;;;;;;22.99;41.69;101402.50;4889953;28;119683;-76
2022/05/25 11:37:11;;;;;;;2.47;0.68;;;;;;;23.15;41.42;101399.31;4890321;28;124595;-77
2022/05/25 11:39:49;;;;;;;2.00;0.70;;;;;;;23.29;41.00;101396.22;4891545;28;123620;-77
2022/05/25 11:42:51;;;;;;;2.35;0.70;;;;;;;23.40;40.70;101388.00;4896727;28;119704;-76
2022/05/25 11:45:34;;;;;;;1.83;0.70;;;;;;;23.49;40.80;101381.75;4904146;28;118215;-76
2022/05/25 11:48:40;;;;;;;1.23;0.70;;;;;;;23.61;40.44;101389.75;4902576;28;124213;-77
2022/05/25 11:51:19;;;;;;;1.15;0.60;;;;;;;23.66;40.40;101387.47;4881894;28;123956;-76
2022/05/25 11:54:11;;;;;;;2.45;0.88;;;;;;;23.69;40.05;101384.47;4888190;28;119294;-76
2022/05/25 11:56:38;;;;;;;1.08;0.73;;;;;;;23.74;39.92;101374.09;4905134;28;119100;-76
2022/05/25 11:59:34;;;;;;;1.58;0.77;;;;;;;23.79;40.17;101365.56;4904128;28;123641;-77
2022/05/25 12:02:36;;;;;;;1.98;0.80;;;;;;;23.93;40.46;101384.06;4888939;28;123729;-77
2022/05/25 12:05:35;;;;;;;2.13;0.82;;;;;;;24.10;40.46;101368.97;4904959;28;119170;-76
2022/05/25 12:08:11;;;;;;;2.03;0.68;;;;;;;24.20;39.91;101369.78;4904826;28;118196;-76
2022/05/25 12:10:42;;;;;;;1.95;0.80;;;;;;;24.28;39.87;101383.47;4903725;28;123353;-77
2022/05/25 12:13:21;;;;;;;0.93;0.60;;;;;;;24.35;38.50;101380.16;4889047;28;124005;-77
2022/05/25 12:16:19;;;;;;;0.90;0.68;;;;;;;24.34;38.77;101370.34;4904403;28;119355;-76
2022/05/25 12:18:55;;;;;;;1.23;0.63;;;;;;;24.39;38.50;101376.16;4890318;28;118314;-76
2022/05/25 12:21:27;;;;;;;2.55;0.80;;;;;;;24.40;37.68;101377.88;4894592;28;124117;-76